sensor_id;sensor_type;location;lat;lon;timestamp;P1;durP1;ratioP1;P2;durP2;ratioP2
51618;SDS011;38518;53.164;5.430;2023-07-13T00:02:14;4.25;;;1.40;;
51618;SDS011;38518;53.164;5.430;2023-07-13T00:04:40;3.83;;;1.15;;
51618;SDS011;38518;53.164;5.430;2023-07-13T00:07:07;3.35;;;1.10;;
51618;SDS011;38518;53.164;5.430;2023-07-13T00:09:33;3.50;;;1.33;;
51618;SDS011;38518;53.164;5.430;2023-07-13T00:11:59;6.40;;;1.33;;
51618;SDS011;38518;53.164;5.430;2023-07-13T00:14:26;4.63;;;1.27;;
51618;SDS011;38518;53.164;5.430;2023-07-13T00:16:53;9.68;;;1.40;;
51618;SDS011;38518;53.164;5.430;2023-07-13T00:19:19;4.63;;;1.30;;
51618;SDS011;38518;53.164;5.430;2023-07-13T00:21:45;4.00;;;1.23;;
51618;SDS011;38518;53.164;5.430;2023-07-13T00:24:12;3.40;;;1.20;;
51618;SDS011;38518;53.164;5.430;2023-07-13T00:26:39;7.93;;;1.88;;
51618;SDS011;38518;53.164;5.430;2023-07-13T00:29:05;4.28;;;1.48;;
51618;SDS011;38518;53.164;5.430;2023-07-13T00:31:34;6.70;;;1.35;;
51618;SDS011;38518;53.164;5.430;2023-07-13T00:34:01;4.45;;;1.40;;
51618;SDS011;38518;53.164;5.430;2023-07-13T00:36:27;5.00;;;1.83;;
51618;SDS011;38518;53.164;5.430;2023-07-13T00:38:53;3.38;;;1.25;;
51618;SDS011;38518;53.164;5.430;2023-07-13T00:41:19;4.85;;;1.80;;
51618;SDS011;38518;53.164;5.430;2023-07-13T00:43:45;4.43;;;1.50;;
51618;SDS011;38518;53.164;5.430;2023-07-13T00:46:13;4.15;;;1.55;;
51618;SDS011;38518;53.164;5.430;2023-07-13T00:48:39;5.03;;;1.40;;
51618;SDS011;38518;53.164;5.430;2023-07-13T00:51:06;8.15;;;1.83;;
51618;SDS011;38518;53.164;5.430;2023-07-13T00:53:32;7.07;;;2.25;;
51618;SDS011;38518;53.164;5.430;2023-07-13T00:55:58;7.10;;;1.85;;
51618;SDS011;38518;53.164;5.430;2023-07-13T00:58:25;8.40;;;2.05;;
51618;SDS011;38518;53.164;5.430;2023-07-13T01:00:52;7.50;;;2.38;;
51618;SDS011;38518;53.164;5.430;2023-07-13T01:03:19;8.05;;;2.60;;
51618;SDS011;38518;53.164;5.430;2023-07-13T01:05:46;7.22;;;2.20;;
51618;SDS011;38518;53.164;5.430;2023-07-13T01:08:12;6.13;;;1.98;;
51618;SDS011;38518;53.164;5.430;2023-07-13T01:10:39;6.57;;;2.03;;
51618;SDS011;38518;53.164;5.430;2023-07-13T01:13:05;7.15;;;2.20;;
51618;SDS011;38518;53.164;5.430;2023-07-13T01:15:51;6.97;;;2.63;;
51618;SDS011;38518;53.164;5.430;2023-07-13T01:18:21;6.25;;;2.50;;
51618;SDS011;38518;53.164;5.430;2023-07-13T01:21:03;7.57;;;2.67;;
51618;SDS011;38518;53.164;5.430;2023-07-13T01:23:29;7.80;;;2.30;;
51618;SDS011;38518;53.164;5.430;2023-07-13T01:25:56;10.82;;;2.30;;
51618;SDS011;38518;53.164;5.430;2023-07-13T01:28:23;10.30;;;3.15;;
51618;SDS011;38518;53.164;5.430;2023-07-13T01:30:52;10.25;;;2.80;;
51618;SDS011;38518;53.164;5.430;2023-07-13T01:33:18;11.43;;;3.13;;
51618;SDS011;38518;53.164;5.430;2023-07-13T01:35:45;8.10;;;2.53;;
51618;SDS011;38518;53.164;5.430;2023-07-13T01:38:13;10.25;;;2.50;;
51618;SDS011;38518;53.164;5.430;2023-07-13T01:40:39;6.60;;;2.40;;
51618;SDS011;38518;53.164;5.430;2023-07-13T01:43:05;7.18;;;2.80;;
51618;SDS011;38518;53.164;5.430;2023-07-13T01:45:31;6.63;;;2.40;;
51618;SDS011;38518;53.164;5.430;2023-07-13T01:47:57;8.10;;;2.60;;
51618;SDS011;38518;53.164;5.430;2023-07-13T01:50:24;10.98;;;3.15;;
51618;SDS011;38518;53.164;5.430;2023-07-13T01:52:50;9.48;;;2.97;;
51618;SDS011;38518;53.164;5.430;2023-07-13T01:55:16;9.20;;;2.80;;
51618;SDS011;38518;53.164;5.430;2023-07-13T01:57:43;9.82;;;3.08;;
51618;SDS011;38518;53.164;5.430;2023-07-13T02:00:09;8.75;;;3.17;;
51618;SDS011;38518;53.164;5.430;2023-07-13T02:02:35;10.00;;;3.05;;
51618;SDS011;38518;53.164;5.430;2023-07-13T02:05:01;6.75;;;2.47;;
51618;SDS011;38518;53.164;5.430;2023-07-13T02:07:27;9.35;;;2.80;;
51618;SDS011;38518;53.164;5.430;2023-07-13T02:09:54;9.25;;;2.70;;
51618;SDS011;38518;53.164;5.430;2023-07-13T02:12:20;8.30;;;2.60;;
51618;SDS011;38518;53.164;5.430;2023-07-13T02:14:46;9.60;;;2.50;;
51618;SDS011;38518;53.164;5.430;2023-07-13T02:17:12;12.18;;;3.08;;
51618;SDS011;38518;53.164;5.430;2023-07-13T02:19:38;10.88;;;3.15;;
51618;SDS011;38518;53.164;5.430;2023-07-13T02:22:04;6.80;;;2.63;;
51618;SDS011;38518;53.164;5.430;2023-07-13T02:24:30;9.77;;;2.90;;
51618;SDS011;38518;53.164;5.430;2023-07-13T02:26:56;9.70;;;3.53;;
51618;SDS011;38518;53.164;5.430;2023-07-13T02:29:22;8.43;;;3.03;;
51618;SDS011;38518;53.164;5.430;2023-07-13T02:31:48;9.00;;;2.90;;
51618;SDS011;38518;53.164;5.430;2023-07-13T02:34:14;13.68;;;3.30;;
51618;SDS011;38518;53.164;5.430;2023-07-13T02:36:40;7.07;;;2.83;;
51618;SDS011;38518;53.164;5.430;2023-07-13T02:39:06;12.05;;;3.25;;
51618;SDS011;38518;53.164;5.430;2023-07-13T02:41:33;10.55;;;3.33;;
51618;SDS011;38518;53.164;5.430;2023-07-13T02:43:59;12.85;;;3.95;;
51618;SDS011;38518;53.164;5.430;2023-07-13T02:46:29;11.40;;;3.03;;
51618;SDS011;38518;53.164;5.430;2023-07-13T02:48:55;12.80;;;3.45;;
51618;SDS011;38518;53.164;5.430;2023-07-13T02:51:21;8.88;;;2.95;;
51618;SDS011;38518;53.164;5.430;2023-07-13T02:53:47;13.27;;;3.42;;
51618;SDS011;38518;53.164;5.430;2023-07-13T02:56:13;9.40;;;3.25;;
51618;SDS011;38518;53.164;5.430;2023-07-13T02:58:39;9.85;;;3.00;;
51618;SDS011;38518;53.164;5.430;2023-07-13T03:01:07;13.73;;;3.40;;
51618;SDS011;38518;53.164;5.430;2023-07-13T03:03:33;15.32;;;3.83;;
51618;SDS011;38518;53.164;5.430;2023-07-13T03:06:00;13.68;;;3.75;;
51618;SDS011;38518;53.164;5.430;2023-07-13T03:08:27;9.07;;;3.20;;
51618;SDS011;38518;53.164;5.430;2023-07-13T03:11:06;18.20;;;3.60;;
51618;SDS011;38518;53.164;5.430;2023-07-13T03:13:33;9.23;;;3.45;;
51618;SDS011;38518;53.164;5.430;2023-07-13T03:15:59;8.80;;;3.13;;
51618;SDS011;38518;53.164;5.430;2023-07-13T03:18:27;10.70;;;3.15;;
51618;SDS011;38518;53.164;5.430;2023-07-13T03:20:53;10.07;;;3.30;;
51618;SDS011;38518;53.164;5.430;2023-07-13T03:23:20;9.10;;;3.30;;
51618;SDS011;38518;53.164;5.430;2023-07-13T03:25:46;10.57;;;3.13;;
51618;SDS011;38518;53.164;5.430;2023-07-13T03:28:12;8.13;;;3.00;;
51618;SDS011;38518;53.164;5.430;2023-07-13T03:30:38;9.38;;;2.78;;
51618;SDS011;38518;53.164;5.430;2023-07-13T03:33:05;8.68;;;2.90;;
51618;SDS011;38518;53.164;5.430;2023-07-13T03:35:31;12.85;;;3.25;;
51618;SDS011;38518;53.164;5.430;2023-07-13T03:37:58;10.27;;;3.40;;
51618;SDS011;38518;53.164;5.430;2023-07-13T03:40:24;6.22;;;2.92;;
51618;SDS011;38518;53.164;5.430;2023-07-13T03:42:51;11.65;;;3.28;;
51618;SDS011;38518;53.164;5.430;2023-07-13T03:45:17;9.38;;;2.80;;
51618;SDS011;38518;53.164;5.430;2023-07-13T03:47:43;20.73;;;3.70;;
51618;SDS011;38518;53.164;5.430;2023-07-13T03:50:09;12.60;;;3.20;;
51618;SDS011;38518;53.164;5.430;2023-07-13T03:52:36;9.20;;;2.55;;
51618;SDS011;38518;53.164;5.430;2023-07-13T03:55:02;8.73;;;2.92;;
51618;SDS011;38518;53.164;5.430;2023-07-13T03:57:28;14.70;;;3.40;;
51618;SDS011;38518;53.164;5.430;2023-07-13T03:59:54;10.93;;;2.70;;
51618;SDS011;38518;53.164;5.430;2023-07-13T04:02:20;9.70;;;2.83;;
51618;SDS011;38518;53.164;5.430;2023-07-13T04:04:46;6.32;;;2.50;;
51618;SDS011;38518;53.164;5.430;2023-07-13T04:07:12;9.75;;;2.83;;
51618;SDS011;38518;53.164;5.430;2023-07-13T04:09:38;5.90;;;2.60;;
51618;SDS011;38518;53.164;5.430;2023-07-13T04:12:05;6.07;;;2.20;;
51618;SDS011;38518;53.164;5.430;2023-07-13T04:14:31;25.88;;;3.97;;
51618;SDS011;38518;53.164;5.430;2023-07-13T04:16:58;13.68;;;2.72;;
51618;SDS011;38518;53.164;5.430;2023-07-13T04:19:24;19.88;;;3.38;;
51618;SDS011;38518;53.164;5.430;2023-07-13T04:21:50;21.42;;;4.75;;
51618;SDS011;38518;53.164;5.430;2023-07-13T04:24:16;27.10;;;3.90;;
51618;SDS011;38518;53.164;5.430;2023-07-13T04:26:42;10.20;;;2.97;;
51618;SDS011;38518;53.164;5.430;2023-07-13T04:29:08;13.43;;;3.28;;
51618;SDS011;38518;53.164;5.430;2023-07-13T04:31:35;25.08;;;3.50;;
51618;SDS011;38518;53.164;5.430;2023-07-13T04:34:01;11.25;;;2.72;;
51618;SDS011;38518;53.164;5.430;2023-07-13T04:36:28;17.85;;;3.22;;
51618;SDS011;38518;53.164;5.430;2023-07-13T04:38:54;10.68;;;2.63;;
51618;SDS011;38518;53.164;5.430;2023-07-13T04:41:20;22.27;;;4.35;;
51618;SDS011;38518;53.164;5.430;2023-07-13T04:43:47;15.23;;;2.72;;
51618;SDS011;38518;53.164;5.430;2023-07-13T04:46:13;19.33;;;3.88;;
51618;SDS011;38518;53.164;5.430;2023-07-13T04:48:40;46.90;;;7.10;;
51618;SDS011;38518;53.164;5.430;2023-07-13T04:51:07;25.85;;;4.18;;
51618;SDS011;38518;53.164;5.430;2023-07-13T04:53:33;11.07;;;2.75;;
51618;SDS011;38518;53.164;5.430;2023-07-13T04:55:59;19.90;;;3.00;;
51618;SDS011;38518;53.164;5.430;2023-07-13T04:58:25;8.23;;;2.00;;
51618;SDS011;38518;53.164;5.430;2023-07-13T05:00:52;6.82;;;2.13;;
51618;SDS011;38518;53.164;5.430;2023-07-13T05:03:19;6.68;;;2.17;;
51618;SDS011;38518;53.164;5.430;2023-07-13T05:05:54;5.25;;;2.00;;
51618;SDS011;38518;53.164;5.430;2023-07-13T05:10:46;10.32;;;2.10;;
51618;SDS011;38518;53.164;5.430;2023-07-13T05:13:12;19.67;;;3.13;;
51618;SDS011;38518;53.164;5.430;2023-07-13T05:15:38;14.77;;;2.50;;
51618;SDS011;38518;53.164;5.430;2023-07-13T05:18:04;42.08;;;5.40;;
51618;SDS011;38518;53.164;5.430;2023-07-13T05:20:30;6.60;;;2.10;;
51618;SDS011;38518;53.164;5.430;2023-07-13T05:22:56;8.25;;;3.03;;
51618;SDS011;38518;53.164;5.430;2023-07-13T05:25:22;7.18;;;2.38;;
51618;SDS011;38518;53.164;5.430;2023-07-13T05:27:48;5.95;;;2.00;;
51618;SDS011;38518;53.164;5.430;2023-07-13T05:30:14;6.47;;;2.03;;
51618;SDS011;38518;53.164;5.430;2023-07-13T05:32:40;6.43;;;2.10;;
51618;SDS011;38518;53.164;5.430;2023-07-13T05:35:07;3.33;;;1.90;;
51618;SDS011;38518;53.164;5.430;2023-07-13T05:37:33;5.25;;;2.13;;
51618;SDS011;38518;53.164;5.430;2023-07-13T05:39:59;6.40;;;2.05;;
51618;SDS011;38518;53.164;5.430;2023-07-13T05:42:25;8.63;;;2.70;;
51618;SDS011;38518;53.164;5.430;2023-07-13T05:44:51;12.02;;;2.88;;
51618;SDS011;38518;53.164;5.430;2023-07-13T05:47:17;9.60;;;2.30;;
51618;SDS011;38518;53.164;5.430;2023-07-13T05:49:43;4.50;;;1.90;;
51618;SDS011;38518;53.164;5.430;2023-07-13T05:52:09;6.43;;;2.05;;
51618;SDS011;38518;53.164;5.430;2023-07-13T05:54:35;5.20;;;1.70;;
51618;SDS011;38518;53.164;5.430;2023-07-13T05:57:01;4.22;;;1.80;;
51618;SDS011;38518;53.164;5.430;2023-07-13T05:59:27;4.93;;;2.08;;
51618;SDS011;38518;53.164;5.430;2023-07-13T06:01:53;5.35;;;1.83;;
51618;SDS011;38518;53.164;5.430;2023-07-13T06:04:20;7.10;;;1.67;;
51618;SDS011;38518;53.164;5.430;2023-07-13T06:06:46;5.63;;;1.92;;
51618;SDS011;38518;53.164;5.430;2023-07-13T06:09:12;7.80;;;2.22;;
51618;SDS011;38518;53.164;5.430;2023-07-13T06:11:38;4.18;;;1.75;;
51618;SDS011;38518;53.164;5.430;2023-07-13T06:14:04;5.30;;;1.80;;
51618;SDS011;38518;53.164;5.430;2023-07-13T06:16:30;3.15;;;1.50;;
51618;SDS011;38518;53.164;5.430;2023-07-13T06:18:56;5.47;;;2.17;;
51618;SDS011;38518;53.164;5.430;2023-07-13T06:21:22;4.53;;;1.90;;
51618;SDS011;38518;53.164;5.430;2023-07-13T06:23:49;5.80;;;2.03;;
51618;SDS011;38518;53.164;5.430;2023-07-13T06:26:16;6.40;;;1.95;;
51618;SDS011;38518;53.164;5.430;2023-07-13T06:28:42;5.15;;;1.92;;
51618;SDS011;38518;53.164;5.430;2023-07-13T06:31:09;5.70;;;1.77;;
51618;SDS011;38518;53.164;5.430;2023-07-13T06:33:36;6.32;;;2.00;;
51618;SDS011;38518;53.164;5.430;2023-07-13T06:36:03;5.65;;;2.00;;
51618;SDS011;38518;53.164;5.430;2023-07-13T06:38:30;5.63;;;1.70;;
51618;SDS011;38518;53.164;5.430;2023-07-13T06:40:56;4.70;;;1.70;;
51618;SDS011;38518;53.164;5.430;2023-07-13T06:43:22;6.32;;;1.80;;
51618;SDS011;38518;53.164;5.430;2023-07-13T06:45:49;6.60;;;1.95;;
51618;SDS011;38518;53.164;5.430;2023-07-13T06:48:16;3.55;;;1.63;;
51618;SDS011;38518;53.164;5.430;2023-07-13T06:50:42;5.30;;;1.75;;
51618;SDS011;38518;53.164;5.430;2023-07-13T06:53:09;4.90;;;1.95;;
51618;SDS011;38518;53.164;5.430;2023-07-13T06:55:36;5.82;;;1.70;;
51618;SDS011;38518;53.164;5.430;2023-07-13T06:58:02;5.85;;;1.70;;
51618;SDS011;38518;53.164;5.430;2023-07-13T07:00:28;4.35;;;1.60;;
51618;SDS011;38518;53.164;5.430;2023-07-13T07:02:54;4.80;;;1.60;;
51618;SDS011;38518;53.164;5.430;2023-07-13T07:05:20;5.82;;;1.80;;
51618;SDS011;38518;53.164;5.430;2023-07-13T07:07:47;4.28;;;1.50;;
51618;SDS011;38518;53.164;5.430;2023-07-13T07:10:13;6.45;;;1.75;;
51618;SDS011;38518;53.164;5.430;2023-07-13T07:12:39;5.72;;;1.83;;
51618;SDS011;38518;53.164;5.430;2023-07-13T07:15:06;4.72;;;1.88;;
51618;SDS011;38518;53.164;5.430;2023-07-13T07:17:32;6.25;;;1.90;;
51618;SDS011;38518;53.164;5.430;2023-07-13T07:19:58;3.28;;;1.65;;
51618;SDS011;38518;53.164;5.430;2023-07-13T07:22:24;3.00;;;1.50;;
51618;SDS011;38518;53.164;5.430;2023-07-13T07:24:53;7.35;;;2.20;;
51618;SDS011;38518;53.164;5.430;2023-07-13T07:27:19;7.78;;;2.05;;
51618;SDS011;38518;53.164;5.430;2023-07-13T07:29:45;5.70;;;2.40;;
51618;SDS011;38518;53.164;5.430;2023-07-13T07:32:12;4.90;;;2.10;;
51618;SDS011;38518;53.164;5.430;2023-07-13T07:34:38;6.18;;;2.30;;
51618;SDS011;38518;53.164;5.430;2023-07-13T07:37:04;5.53;;;1.98;;
51618;SDS011;38518;53.164;5.430;2023-07-13T07:39:31;4.93;;;1.95;;
51618;SDS011;38518;53.164;5.430;2023-07-13T07:41:57;6.88;;;2.10;;
51618;SDS011;38518;53.164;5.430;2023-07-13T07:44:23;7.72;;;2.22;;
51618;SDS011;38518;53.164;5.430;2023-07-13T07:46:49;5.90;;;1.95;;
51618;SDS011;38518;53.164;5.430;2023-07-13T07:49:15;7.65;;;1.85;;
51618;SDS011;38518;53.164;5.430;2023-07-13T07:51:41;5.85;;;2.00;;
51618;SDS011;38518;53.164;5.430;2023-07-13T07:54:07;4.90;;;2.00;;
51618;SDS011;38518;53.164;5.430;2023-07-13T07:56:33;4.22;;;1.75;;
51618;SDS011;38518;53.164;5.430;2023-07-13T07:58:59;6.28;;;1.90;;
51618;SDS011;38518;53.164;5.430;2023-07-13T08:01:25;3.88;;;1.80;;
51618;SDS011;38518;53.164;5.430;2023-07-13T08:03:52;6.20;;;2.05;;
51618;SDS011;38518;53.164;5.430;2023-07-13T08:06:18;4.03;;;1.90;;
51618;SDS011;38518;53.164;5.430;2023-07-13T08:08:45;4.13;;;1.98;;
51618;SDS011;38518;53.164;5.430;2023-07-13T08:11:11;5.72;;;1.80;;
51618;SDS011;38518;53.164;5.430;2023-07-13T08:13:37;7.00;;;1.70;;
51618;SDS011;38518;53.164;5.430;2023-07-13T08:16:04;4.72;;;1.58;;
51618;SDS011;38518;53.164;5.430;2023-07-13T08:18:30;7.13;;;1.70;;
51618;SDS011;38518;53.164;5.430;2023-07-13T08:20:56;4.78;;;1.70;;
51618;SDS011;38518;53.164;5.430;2023-07-13T08:23:24;3.35;;;1.60;;
51618;SDS011;38518;53.164;5.430;2023-07-13T08:25:53;8.43;;;1.83;;
51618;SDS011;38518;53.164;5.430;2023-07-13T08:28:20;6.65;;;1.60;;
51618;SDS011;38518;53.164;5.430;2023-07-13T08:30:46;4.72;;;1.58;;
51618;SDS011;38518;53.164;5.430;2023-07-13T08:33:17;5.72;;;1.83;;
51618;SDS011;38518;53.164;5.430;2023-07-13T08:35:47;3.38;;;1.60;;
51618;SDS011;38518;53.164;5.430;2023-07-13T08:38:13;4.22;;;1.55;;
51618;SDS011;38518;53.164;5.430;2023-07-13T08:40:39;4.15;;;1.67;;
51618;SDS011;38518;53.164;5.430;2023-07-13T08:43:07;3.17;;;1.42;;
51618;SDS011;38518;53.164;5.430;2023-07-13T08:45:40;4.32;;;1.30;;
51618;SDS011;38518;53.164;5.430;2023-07-13T08:48:11;3.55;;;1.35;;
51618;SDS011;38518;53.164;5.430;2023-07-13T08:50:46;4.03;;;1.38;;
51618;SDS011;38518;53.164;5.430;2023-07-13T08:53:14;3.53;;;1.33;;
51618;SDS011;38518;53.164;5.430;2023-07-13T08:55:41;5.05;;;1.20;;
51618;SDS011;38518;53.164;5.430;2023-07-13T08:58:14;2.03;;;1.20;;
51618;SDS011;38518;53.164;5.430;2023-07-13T09:00:44;6.00;;;1.50;;
51618;SDS011;38518;53.164;5.430;2023-07-13T09:03:16;3.58;;;1.05;;
51618;SDS011;38518;53.164;5.430;2023-07-13T09:05:45;9.73;;;1.80;;
51618;SDS011;38518;53.164;5.430;2023-07-13T09:08:23;2.60;;;1.20;;
51618;SDS011;38518;53.164;5.430;2023-07-13T09:10:57;2.10;;;1.20;;
51618;SDS011;38518;53.164;5.430;2023-07-13T09:13:33;5.28;;;1.50;;
51618;SDS011;38518;53.164;5.430;2023-07-13T09:16:03;2.58;;;1.30;;
51618;SDS011;38518;53.164;5.430;2023-07-13T09:18:35;4.05;;;1.42;;
51618;SDS011;38518;53.164;5.430;2023-07-13T09:21:07;3.35;;;1.77;;
51618;SDS011;38518;53.164;5.430;2023-07-13T09:23:34;8.43;;;1.65;;
51618;SDS011;38518;53.164;5.430;2023-07-13T09:28:40;3.42;;;1.52;;
51618;SDS011;38518;53.164;5.430;2023-07-13T09:33:33;4.97;;;1.80;;
51618;SDS011;38518;53.164;5.430;2023-07-13T09:36:00;6.03;;;1.85;;
51618;SDS011;38518;53.164;5.430;2023-07-13T09:38:27;4.22;;;1.92;;
51618;SDS011;38518;53.164;5.430;2023-07-13T09:44:00;6.57;;;1.80;;
51618;SDS011;38518;53.164;5.430;2023-07-13T09:46:26;8.25;;;2.30;;
51618;SDS011;38518;53.164;5.430;2023-07-13T09:48:52;3.85;;;1.90;;
51618;SDS011;38518;53.164;5.430;2023-07-13T09:51:18;6.28;;;2.33;;
51618;SDS011;38518;53.164;5.430;2023-07-13T09:53:44;6.72;;;1.98;;
51618;SDS011;38518;53.164;5.430;2023-07-13T09:56:20;5.85;;;2.22;;
51618;SDS011;38518;53.164;5.430;2023-07-13T09:58:46;6.85;;;2.00;;
51618;SDS011;38518;53.164;5.430;2023-07-13T10:01:12;5.63;;;1.95;;
51618;SDS011;38518;53.164;5.430;2023-07-13T10:03:39;5.72;;;2.10;;
51618;SDS011;38518;53.164;5.430;2023-07-13T10:06:13;6.82;;;2.15;;
51618;SDS011;38518;53.164;5.430;2023-07-13T10:08:40;5.60;;;2.20;;
51618;SDS011;38518;53.164;5.430;2023-07-13T10:11:10;4.60;;;2.05;;
51618;SDS011;38518;53.164;5.430;2023-07-13T10:14:23;5.80;;;2.00;;
51618;SDS011;38518;53.164;5.430;2023-07-13T10:16:34;4.50;;;1.90;;
51618;SDS011;38518;53.164;5.430;2023-07-13T10:19:02;6.47;;;2.20;;
51618;SDS011;38518;53.164;5.430;2023-07-13T10:21:35;7.10;;;2.40;;
51618;SDS011;38518;53.164;5.430;2023-07-13T10:24:10;5.05;;;2.40;;
51618;SDS011;38518;53.164;5.430;2023-07-13T10:26:38;4.57;;;2.55;;
51618;SDS011;38518;53.164;5.430;2023-07-13T10:29:07;6.28;;;2.60;;
51618;SDS011;38518;53.164;5.430;2023-07-13T10:31:36;7.05;;;2.40;;
51618;SDS011;38518;53.164;5.430;2023-07-13T10:34:02;9.13;;;2.38;;
51618;SDS011;38518;53.164;5.430;2023-07-13T10:36:43;7.57;;;2.33;;
51618;SDS011;38518;53.164;5.430;2023-07-13T10:39:13;6.13;;;2.53;;
51618;SDS011;38518;53.164;5.430;2023-07-13T10:41:41;6.95;;;2.65;;
51618;SDS011;38518;53.164;5.430;2023-07-13T10:44:15;6.80;;;2.38;;
51618;SDS011;38518;53.164;5.430;2023-07-13T10:46:44;5.35;;;2.30;;
51618;SDS011;38518;53.164;5.430;2023-07-13T10:49:11;4.60;;;2.15;;
51618;SDS011;38518;53.164;5.430;2023-07-13T10:51:38;6.80;;;2.35;;
51618;SDS011;38518;53.164;5.430;2023-07-13T10:54:16;5.30;;;2.30;;
51618;SDS011;38518;53.164;5.430;2023-07-13T10:56:43;6.53;;;2.53;;
51618;SDS011;38518;53.164;5.430;2023-07-13T10:59:23;6.97;;;2.22;;
51618;SDS011;38518;53.164;5.430;2023-07-13T11:04:21;8.40;;;2.53;;
51618;SDS011;38518;53.164;5.430;2023-07-13T11:06:50;6.22;;;2.55;;
51618;SDS011;38518;53.164;5.430;2023-07-13T11:09:37;7.68;;;2.58;;
51618;SDS011;38518;53.164;5.430;2023-07-13T11:22:53;6.45;;;2.40;;
51618;SDS011;38518;53.164;5.430;2023-07-13T11:25:33;4.43;;;2.00;;
51618;SDS011;38518;53.164;5.430;2023-07-13T11:30:35;7.13;;;2.40;;
51618;SDS011;38518;53.164;5.430;2023-07-13T11:35:41;6.38;;;2.13;;
51618;SDS011;38518;53.164;5.430;2023-07-13T11:38:16;5.85;;;2.47;;
51618;SDS011;38518;53.164;5.430;2023-07-13T11:40:43;8.88;;;2.70;;
51618;SDS011;38518;53.164;5.430;2023-07-13T11:43:11;7.43;;;3.05;;
51618;SDS011;38518;53.164;5.430;2023-07-13T11:45:38;8.60;;;2.60;;
51618;SDS011;38518;53.164;5.430;2023-07-13T11:48:04;7.57;;;2.70;;
51618;SDS011;38518;53.164;5.430;2023-07-13T11:50:31;7.82;;;2.88;;
51618;SDS011;38518;53.164;5.430;2023-07-13T11:52:57;5.82;;;2.33;;
51618;SDS011;38518;53.164;5.430;2023-07-13T11:55:24;6.03;;;2.28;;
51618;SDS011;38518;53.164;5.430;2023-07-13T11:57:51;7.57;;;2.30;;
51618;SDS011;38518;53.164;5.430;2023-07-13T12:00:23;11.85;;;2.58;;
51618;SDS011;38518;53.164;5.430;2023-07-13T12:02:52;5.53;;;2.58;;
51618;SDS011;38518;53.164;5.430;2023-07-13T12:05:19;8.70;;;2.30;;
51618;SDS011;38518;53.164;5.430;2023-07-13T12:07:45;6.57;;;2.65;;
51618;SDS011;38518;53.164;5.430;2023-07-13T12:10:22;6.68;;;2.63;;
51618;SDS011;38518;53.164;5.430;2023-07-13T12:12:51;7.05;;;2.40;;
51618;SDS011;38518;53.164;5.430;2023-07-13T12:15:17;7.63;;;2.40;;
51618;SDS011;38518;53.164;5.430;2023-07-13T12:17:43;11.00;;;2.60;;
51618;SDS011;38518;53.164;5.430;2023-07-13T12:20:17;14.38;;;2.67;;
51618;SDS011;38518;53.164;5.430;2023-07-13T12:22:47;10.60;;;2.85;;
51618;SDS011;38518;53.164;5.430;2023-07-13T12:25:13;9.25;;;2.67;;
51618;SDS011;38518;53.164;5.430;2023-07-13T12:27:40;10.07;;;2.38;;
51618;SDS011;38518;53.164;5.430;2023-07-13T12:32:59;8.80;;;3.08;;
51618;SDS011;38518;53.164;5.430;2023-07-13T12:35:26;10.77;;;2.60;;
51618;SDS011;38518;53.164;5.430;2023-07-13T12:37:54;7.25;;;2.38;;
51618;SDS011;38518;53.164;5.430;2023-07-13T12:40:25;7.53;;;2.50;;
51618;SDS011;38518;53.164;5.430;2023-07-13T12:42:52;9.60;;;2.75;;
51618;SDS011;38518;53.164;5.430;2023-07-13T12:47:47;11.27;;;3.00;;
51618;SDS011;38518;53.164;5.430;2023-07-13T12:50:14;8.57;;;2.80;;
51618;SDS011;38518;53.164;5.430;2023-07-13T12:52:42;12.85;;;3.10;;
51618;SDS011;38518;53.164;5.430;2023-07-13T12:55:16;8.25;;;2.85;;
51618;SDS011;38518;53.164;5.430;2023-07-13T12:57:50;8.45;;;3.03;;
51618;SDS011;38518;53.164;5.430;2023-07-13T13:03:20;7.07;;;2.70;;
51618;SDS011;38518;53.164;5.430;2023-07-13T13:05:47;6.93;;;2.40;;
51618;SDS011;38518;53.164;5.430;2023-07-13T13:08:14;8.88;;;2.75;;
51618;SDS011;38518;53.164;5.430;2023-07-13T13:10:40;7.32;;;2.45;;
51618;SDS011;38518;53.164;5.430;2023-07-13T13:13:06;6.38;;;2.25;;
51618;SDS011;38518;53.164;5.430;2023-07-13T13:15:33;5.57;;;2.50;;
51618;SDS011;38518;53.164;5.430;2023-07-13T13:18:01;9.25;;;2.58;;
51618;SDS011;38518;53.164;5.430;2023-07-13T13:20:27;6.78;;;2.38;;
51618;SDS011;38518;53.164;5.430;2023-07-13T13:22:53;10.63;;;2.65;;
51618;SDS011;38518;53.164;5.430;2023-07-13T13:25:20;12.10;;;2.70;;
51618;SDS011;38518;53.164;5.430;2023-07-13T13:27:47;6.40;;;2.50;;
51618;SDS011;38518;53.164;5.430;2023-07-13T13:30:15;8.00;;;2.63;;
51618;SDS011;38518;53.164;5.430;2023-07-13T13:32:42;6.40;;;2.53;;
51618;SDS011;38518;53.164;5.430;2023-07-13T13:35:18;8.57;;;2.90;;
51618;SDS011;38518;53.164;5.430;2023-07-13T13:37:45;8.52;;;3.10;;
51618;SDS011;38518;53.164;5.430;2023-07-13T13:40:19;5.85;;;2.75;;
51618;SDS011;38518;53.164;5.430;2023-07-13T13:42:46;10.02;;;2.40;;
51618;SDS011;38518;53.164;5.430;2023-07-13T13:45:12;4.05;;;2.30;;
51618;SDS011;38518;53.164;5.430;2023-07-13T13:47:39;6.13;;;2.45;;
51618;SDS011;38518;53.164;5.430;2023-07-13T13:52:39;6.97;;;2.60;;
51618;SDS011;38518;53.164;5.430;2023-07-13T13:55:12;7.18;;;2.80;;
51618;SDS011;38518;53.164;5.430;2023-07-13T13:57:39;6.30;;;2.57;;
51618;SDS011;38518;53.164;5.430;2023-07-13T14:00:05;6.55;;;2.60;;
51618;SDS011;38518;53.164;5.430;2023-07-13T14:02:31;7.18;;;2.60;;
51618;SDS011;38518;53.164;5.430;2023-07-13T14:05:01;7.47;;;2.97;;
51618;SDS011;38518;53.164;5.430;2023-07-13T14:07:28;7.22;;;2.90;;
51618;SDS011;38518;53.164;5.430;2023-07-13T14:09:56;8.20;;;2.50;;
51618;SDS011;38518;53.164;5.430;2023-07-13T14:12:22;9.00;;;2.80;;
51618;SDS011;38518;53.164;5.430;2023-07-13T14:14:53;9.05;;;3.22;;
51618;SDS011;38518;53.164;5.430;2023-07-13T14:17:20;11.63;;;3.00;;
51618;SDS011;38518;53.164;5.430;2023-07-13T14:19:48;16.80;;;3.22;;
51618;SDS011;38518;53.164;5.430;2023-07-13T14:22:16;17.48;;;3.55;;
51618;SDS011;38518;53.164;5.430;2023-07-13T14:24:43;10.77;;;3.30;;
51618;SDS011;38518;53.164;5.430;2023-07-13T14:27:10;17.25;;;3.67;;
51618;SDS011;38518;53.164;5.430;2023-07-13T14:29:37;9.40;;;3.30;;
51618;SDS011;38518;53.164;5.430;2023-07-13T14:32:03;9.57;;;3.40;;
51618;SDS011;38518;53.164;5.430;2023-07-13T14:34:30;9.73;;;3.20;;
51618;SDS011;38518;53.164;5.430;2023-07-13T14:36:58;6.68;;;3.22;;
51618;SDS011;38518;53.164;5.430;2023-07-13T14:39:24;7.93;;;3.00;;
51618;SDS011;38518;53.164;5.430;2023-07-13T14:41:51;8.93;;;3.10;;
51618;SDS011;38518;53.164;5.430;2023-07-13T14:44:20;8.20;;;3.13;;
51618;SDS011;38518;53.164;5.430;2023-07-13T14:46:48;8.95;;;3.45;;
51618;SDS011;38518;53.164;5.430;2023-07-13T14:49:31;9.98;;;2.83;;
51618;SDS011;38518;53.164;5.430;2023-07-13T14:51:59;9.60;;;3.35;;
51618;SDS011;38518;53.164;5.430;2023-07-13T14:54:28;8.30;;;3.05;;
51618;SDS011;38518;53.164;5.430;2023-07-13T14:56:56;7.38;;;3.05;;
51618;SDS011;38518;53.164;5.430;2023-07-13T14:59:21;6.20;;;2.72;;
51618;SDS011;38518;53.164;5.430;2023-07-13T15:01:48;5.57;;;2.63;;
51618;SDS011;38518;53.164;5.430;2023-07-13T15:04:14;5.95;;;2.95;;
51618;SDS011;38518;53.164;5.430;2023-07-13T15:06:57;7.40;;;2.90;;
51618;SDS011;38518;53.164;5.430;2023-07-13T15:09:24;8.63;;;3.33;;
51618;SDS011;38518;53.164;5.430;2023-07-13T15:11:57;8.48;;;3.20;;
51618;SDS011;38518;53.164;5.430;2023-07-13T15:14:24;10.00;;;2.88;;
51618;SDS011;38518;53.164;5.430;2023-07-13T15:16:51;9.90;;;3.20;;
51618;SDS011;38518;53.164;5.430;2023-07-13T15:19:19;7.50;;;3.17;;
51618;SDS011;38518;53.164;5.430;2023-07-13T15:21:49;8.88;;;2.90;;
51618;SDS011;38518;53.164;5.430;2023-07-13T15:24:17;7.68;;;2.80;;
51618;SDS011;38518;53.164;5.430;2023-07-13T15:26:43;8.43;;;3.35;;
51618;SDS011;38518;53.164;5.430;2023-07-13T15:29:11;7.30;;;3.30;;